Time;durP1;ratioP1;P1;durP2;ratioP2;P2;SDS_P1;SDS_P2;PMS_P1;PMS_P2;Temp;Humidity;BMP_temperature;BMP_pressure;BME280_temperature;BME280_humidity;BME280_pressure;Samples;Min_cycle;Max_cycle;Signal;HPM_P1;HPM_P2
2021/12/26 10:20:08;;;;;;;15.67;8.57;;;;;;;-1.80;84.07;100503.88;5288855;27;20394;-81
2021/12/26 10:22:40;;;;;;;13.60;8.90;;;;;;;-1.54;84.48;100530.91;5271474;28;20340;-79
2021/12/26 10:25:14;;;;;;;16.43;8.20;;;;;;;-1.71;84.49;100496.03;5272021;28;20805;-79
2021/12/26 10:27:48;;;;;;;;;;;;;;;-1.41;85.08;100530.72;5270933;28;20644;-82
2021/12/26 10:30:24;;;;;;;13.40;7.87;;;;;;;-1.51;84.15;100510.31;5273621;28;19911;-82
2021/12/26 10:33:01;;;;;;;13.07;8.23;;;;;;;-1.53;83.41;100491.50;5272272;28;20372;-79
2021/12/26 10:35:35;;;;;;;15.53;8.63;;;;;;;-1.35;83.94;100520.34;5254795;28;20493;-80
2021/12/26 10:38:17;;;;;;;15.30;8.75;;;;;;;-1.48;84.38;100481.16;5272645;28;20021;-80
2021/12/26 10:40:49;;;;;;;14.73;8.53;;;;;;;-1.53;83.72;100465.81;5273069;28;20075;-82
2021/12/26 10:43:20;;;;;;;15.60;9.00;;;;;;;-1.22;83.90;100511.56;5271639;28;20021;-81
2021/12/26 10:45:52;;;;;;;13.23;8.77;;;;;;;-1.23;84.56;100491.03;5273639;28;20610;-82
2021/12/26 10:48:24;;;;;;;11.70;8.03;;;;;;;-1.31;83.96;100480.03;5273663;28;20055;-82
2021/12/26 10:51:02;;;;;;;14.00;9.23;;;;;;;-1.13;84.04;100479.72;5271458;28;20028;-80
2021/12/26 10:53:36;;;;;;;17.50;8.23;;;;;;;-1.23;83.96;100458.50;5249899;28;20037;-80
2021/12/26 10:56:13;;;;;;;13.70;8.73;;;;;;;-1.24;84.08;100446.50;5253704;28;20087;-79
2021/12/26 11:06:54;;;;;;;14.20;8.80;;;;;;;-0.80;83.75;100491.19;5268090;28;20060;-80
2021/12/26 11:10:12;;;;;;;15.13;8.80;;;;;;;-0.67;84.44;100486.66;5265336;28;20059;-80
2021/12/26 11:12:47;;;;;;;15.47;9.17;;;;;;;-0.71;83.74;100479.88;5251155;28;20048;-80
2021/12/26 11:15:20;;;;;;;13.03;9.03;;;;;;;-0.70;83.79;100481.56;5256099;28;20048;-81
2021/12/26 11:18:16;;;;;;;12.50;9.17;;;;;;;-0.91;84.17;100442.53;5270710;28;20040;-82
2021/12/26 11:20:53;;;;;;;13.50;8.90;;;;;;;-0.94;84.21;100443.41;5272163;28;20036;-80
2021/12/26 11:23:43;;;;;;;14.30;9.33;;;;;;;-0.68;84.36;100479.81;5270062;28;20472;-80
2021/12/26 11:26:17;;;;;;;14.50;9.37;;;;;;;-0.77;83.83;100445.66;5269565;28;20041;-80
2021/12/26 11:28:51;;;;;;;13.75;9.45;;;;;;;-0.66;84.25;100442.03;5270867;28;20025;-77
2021/12/26 11:31:27;;;;;;;13.70;9.40;;;;;;;-0.80;84.39;100414.88;5256368;28;20476;-76
2021/12/26 11:34:01;;;;;;;15.33;9.57;;;;;;;-0.66;83.98;100429.19;5257051;28;20060;-76
2021/12/26 11:36:33;;;;;;;13.20;9.82;;;;;;;-0.61;83.64;100423.06;5256253;28;20028;-77
2021/12/26 11:39:06;;;;;;;15.57;10.03;;;;;;;-0.54;83.95;100426.38;5254643;28;20025;-77
2021/12/26 11:42:11;;;;;;;13.63;10.65;;;;;;;-0.33;83.81;100465.41;5256263;28;20465;-78
2021/12/26 11:44:50;;;;;;;14.70;9.47;;;;;;;-0.26;84.07;100482.41;5234350;28;20094;-77
2021/12/26 11:47:25;;;;;;;14.80;9.63;;;;;;;-0.45;84.32;100486.22;5257313;28;20108;-76
2021/12/26 11:50:13;;;;;;;15.00;9.13;;;;;;;-0.62;84.42;100449.69;5257281;28;20013;-77
2021/12/26 11:53:09;;;;;;;16.30;9.10;;;;;;;-0.24;84.32;100484.97;5267217;28;20448;-77
2021/12/26 11:55:49;;;;;;;14.33;9.93;;;;;;;-0.56;84.58;100422.16;5277451;28;20028;-76
2021/12/26 11:58:43;;;;;;;17.83;9.80;;;;;;;-0.58;84.62;100416.19;5276886;28;20047;-76
2021/12/26 12:01:17;;;;;;;14.50;10.23;;;;;;;-0.25;84.29;100458.41;5271211;28;20025;-77
2021/12/26 12:04:09;;;;;;;15.90;10.60;;;;;;;-0.54;84.23;100390.34;5251752;28;20033;-76
2021/12/26 12:06:41;;;;;;;16.47;11.53;;;;;;;-0.54;84.67;100389.53;5252624;28;20037;-77
2021/12/26 12:09:29;;;;;;;18.37;11.93;;;;;;;0.08;84.42;100467.13;5257001;28;20036;-77
2021/12/26 12:12:05;;;;;;;16.80;9.27;;;;;;;0.02;84.13;100467.28;5255965;28;20037;-77
2021/12/26 12:15:00;;;;;;;16.73;9.77;;;;;;;-0.08;84.13;100439.16;5256657;28;20112;-76
2021/12/26 12:17:32;;;;;;;15.93;9.70;;;;;;;-0.26;84.23;100401.78;5248510;28;20488;-76
2021/12/26 12:20:21;;;;;;;17.40;11.93;;;;;;;0.07;84.38;100460.31;5256715;28;20057;-77
2021/12/26 12:23:06;;;;;;;20.40;11.13;;;;;;;0.11;84.84;100459.34;5265728;28;20031;-77
2021/12/26 12:25:49;;;;;;;14.60;9.77;;;;;;;-0.08;84.11;100436.59;5271133;28;21475;-77
2021/12/26 12:28:43;;;;;;;15.50;10.63;;;;;;;-0.02;84.09;100443.34;5256378;28;20017;-77
2021/12/26 12:31:17;;;;;;;14.03;10.30;;;;;;;-0.01;84.59;100430.41;5254041;28;20045;-78
2021/12/26 12:34:01;;;;;;;19.45;9.32;;;;;;;0.20;84.81;100460.88;5253617;28;20040;-78
2021/12/26 12:36:34;;;;;;;18.27;11.07;;;;;;;0.22;84.51;100457.38;5252721;28;20526;-78
2021/12/26 12:39:17;;;;;;;16.13;10.80;;;;;;;0.31;84.78;100450.31;5253434;28;20020;-78
2021/12/26 12:41:54;;;;;;;19.03;10.43;;;;;;;0.29;84.75;100434.03;5250465;28;20053;-78
2021/12/26 12:44:37;;;;;;;16.53;10.90;;;;;;;0.09;84.66;100407.00;5251550;28;20135;-78
2021/12/26 12:47:14;;;;;;;15.80;10.97;;;;;;;0.41;85.04;100431.19;5252925;28;20720;-78
2021/12/26 12:49:55;;;;;;;17.23;10.57;;;;;;;0.33;84.77;100409.91;5254288;28;20029;-77
2021/12/26 12:52:46;;;;;;;16.60;11.33;;;;;;;0.54;85.06;100423.16;5259669;28;20078;-78
2021/12/26 12:55:22;;;;;;;14.60;10.90;;;;;;;0.46;84.90;100419.03;5275238;28;20061;-77
2021/12/26 12:57:55;;;;;;;17.40;12.50;;;;;;;0.41;85.47;100410.56;5262959;28;20028;-77
2021/12/26 13:00:26;;;;;;;24.00;13.80;;;;;;;0.46;84.89;100415.59;5274638;28;20375;-78
2021/12/26 13:02:59;;;;;;;22.80;13.27;;;;;;;0.34;84.81;100399.56;5272512;28;20033;-77
2021/12/26 13:05:35;;;;;;;29.37;14.90;;;;;;;0.51;85.13;100412.94;5258903;28;20100;-78
2021/12/26 13:08:09;;;;;;;15.87;11.33;;;;;;;0.43;84.93;100410.53;5250373;28;20029;-77
2021/12/26 13:10:40;;;;;;;19.88;11.52;;;;;;;0.52;85.52;100418.06;5265087;28;21052;-77
2021/12/26 13:13:14;;;;;;;17.80;13.23;;;;;;;0.52;85.16;100406.88;5274769;28;20021;-79
2021/12/26 13:15:52;;;;;;;15.37;11.40;;;;;;;0.66;85.54;100415.13;5256659;28;20403;-79
2021/12/26 13:18:28;;;;;;;16.57;11.83;;;;;;;0.69;84.67;100409.88;5271505;28;20052;-78
2021/12/26 13:21:05;;;;;;;16.37;11.00;;;;;;;0.58;85.14;100386.09;5274988;28;20035;-78
2021/12/26 13:23:40;;;;;;;14.93;10.40;;;;;;;0.70;84.99;100403.84;5272529;28;20059;-78
2021/12/26 13:26:11;;;;;;;17.38;10.80;;;;;;;0.65;84.44;100413.41;5274706;28;20048;-77
2021/12/26 13:28:43;;;;;;;15.43;10.97;;;;;;;0.68;84.81;100410.75;5263165;28;20592;-78
2021/12/26 13:31:31;;;;;;;16.20;11.13;;;;;;;0.48;85.27;100373.47;5254230;28;20035;-81
2021/12/26 13:34:13;;;;;;;16.30;12.03;;;;;;;0.66;84.88;100415.13;5234529;28;20419;-82
2021/12/26 13:36:48;;;;;;;17.00;10.83;;;;;;;0.36;84.82;100337.69;5234439;28;20102;-82
2021/12/26 13:39:23;;;;;;;;;;;;;;;0.86;85.20;100385.38;5257131;28;20590;-81
2021/12/26 13:41:59;;;;;;;;;;;;;;;0.87;84.91;100392.25;5254874;28;19909;-82
2021/12/26 13:44:31;;;;;;;15.20;10.80;;;;;;;0.36;85.02;100335.13;5255825;28;19935;-79
2021/12/26 13:47:07;;;;;;;16.00;12.67;;;;;;;0.54;85.27;100361.31;5256848;28;20024;-79
2021/12/26 13:49:46;;;;;;;14.50;11.07;;;;;;;0.29;85.74;100326.72;5255713;28;20067;-80
2021/12/26 13:52:19;;;;;;;19.40;12.57;;;;;;;0.27;86.23;100317.31;5253508;28;20048;-81
2021/12/26 13:54:52;;;;;;;16.43;12.33;;;;;;;0.75;85.85;100379.69;5254607;28;20021;-80
2021/12/26 13:57:24;;;;;;;17.47;12.47;;;;;;;0.54;85.80;100336.38;5256535;28;20028;-80
2021/12/26 13:59:56;;;;;;;14.70;10.97;;;;;;;0.34;85.93;100311.97;5255181;28;20071;-80
2021/12/26 14:02:31;;;;;;;16.60;12.17;;;;;;;0.32;86.12;100318.91;5254286;28;20428;-80
2021/12/26 14:05:08;;;;;;;18.03;11.13;;;;;;;0.51;86.41;100338.22;5253926;28;20031;-80
2021/12/26 14:07:45;;;;;;;16.57;11.23;;;;;;;0.43;86.17;100302.31;5253443;28;20061;-80
2021/12/26 14:10:20;;;;;;;20.87;14.03;;;;;;;0.71;86.18;100360.88;5256157;28;20032;-79
2021/12/26 14:13:00;;;;;;;18.37;12.73;;;;;;;0.55;86.51;100316.59;5252683;28;20493;-82
2021/12/26 14:15:38;;;;;;;17.93;11.63;;;;;;;0.38;86.09;100286.13;5254979;28;20025;-84
2021/12/26 14:18:18;;;;;;;16.73;12.10;;;;;;;0.84;86.00;100358.78;5250031;28;20095;-78
2021/12/26 14:20:55;;;;;;;13.40;10.37;;;;;;;0.84;86.40;100345.91;5252374;28;20037;-78
2021/12/26 14:23:44;;;;;;;20.30;12.37;;;;;;;0.69;85.94;100342.88;5251961;28;20021;-79
2021/12/26 14:26:39;;;;;;;17.90;11.97;;;;;;;0.76;86.17;100342.69;5242966;28;20036;-79
2021/12/26 14:29:14;;;;;;;19.20;13.80;;;;;;;0.69;86.50;100348.03;5253575;28;20109;-79
2021/12/26 14:31:56;;;;;;;22.10;15.70;;;;;;;0.64;86.42;100329.25;5253185;28;20033;-79
2021/12/26 14:34:30;;;;;;;21.10;12.53;;;;;;;0.65;86.37;100350.69;5251754;28;20021;-78
2021/12/26 14:37:04;;;;;;;16.73;11.77;;;;;;;0.76;86.97;100371.91;5248221;28;20025;-78
2021/12/26 14:39:41;;;;;;;16.00;11.90;;;;;;;0.80;87.17;100372.66;5251019;28;20033;-79
2021/12/26 14:42:19;;;;;;;16.43;11.73;;;;;;;0.73;87.25;100353.94;5252052;28;20024;-78
2021/12/26 14:44:57;;;;;;;17.70;12.07;;;;;;;0.91;87.12;100362.91;5253036;28;20036;-79
2021/12/26 14:47:39;;;;;;;19.53;11.77;;;;;;;0.83;86.89;100359.69;5252373;28;20021;-79
2021/12/26 14:50:18;;;;;;;18.57;12.17;;;;;;;0.75;87.25;100349.56;5252473;28;20052;-79
2021/12/26 14:52:53;;;;;;;18.93;11.90;;;;;;;0.84;87.15;100356.22;5250566;28;20108;-79
2021/12/26 14:55:28;;;;;;;20.73;12.87;;;;;;;0.83;86.96;100342.50;5252241;28;20109;-79
2021/12/26 14:58:08;;;;;;;16.10;12.33;;;;;;;0.94;87.03;100352.50;5250964;28;20033;-79
2021/12/26 15:00:44;;;;;;;17.93;13.93;;;;;;;0.92;87.40;100358.59;5250892;28;20039;-78
2021/12/26 15:03:18;;;;;;;19.87;12.50;;;;;;;0.89;87.41;100349.19;5256737;28;20833;-79
2021/12/26 15:05:52;;;;;;;17.88;12.95;;;;;;;1.00;87.18;100356.66;5253572;28;20457;-78
2021/12/26 15:08:23;;;;;;;17.27;12.18;;;;;;;0.87;87.57;100351.00;5254647;28;20028;-79
2021/12/26 15:10:55;;;;;;;18.00;13.00;;;;;;;0.62;88.08;100312.97;5254950;28;20017;-78
2021/12/26 15:13:26;;;;;;;18.03;14.27;;;;;;;0.92;88.00;100338.81;5256251;28;20029;-79
2021/12/26 15:15:57;;;;;;;21.43;13.03;;;;;;;0.84;87.83;100320.13;5258778;28;20029;-79
2021/12/26 15:18:31;;;;;;;15.87;12.40;;;;;;;0.80;87.84;100295.31;5257460;28;20086;-78
2021/12/26 15:21:11;;;;;;;19.50;11.88;;;;;;;1.07;87.82;100340.13;5256171;28;20017;-78
2021/12/26 15:23:42;;;;;;;20.33;12.90;;;;;;;0.86;88.41;100315.78;5261818;28;20032;-79
2021/12/26 15:26:20;;;;;;;21.93;13.63;;;;;;;0.87;88.55;100326.94;5277550;28;20389;-79
2021/12/26 15:28:53;;;;;;;20.47;13.70;;;;;;;0.94;88.53;100331.88;5260479;28;20118;-78
2021/12/26 15:31:27;;;;;;;18.67;13.07;;;;;;;1.02;88.82;100349.72;5256243;28;20079;-77
2021/12/26 15:34:07;;;;;;;19.77;12.88;;;;;;;0.84;88.75;100314.97;5254586;28;20111;-78
2021/12/26 15:37:07;;;;;;;20.33;15.20;;;;;;;0.68;88.66;100275.91;5251981;28;20119;-78
2021/12/26 15:39:39;;;;;;;18.90;12.90;;;;;;;0.72;88.87;100285.22;5253325;28;20041;-79
2021/12/26 15:42:20;;;;;;;18.63;14.27;;;;;;;0.83;88.79;100292.66;5255066;28;20477;-79
2021/12/26 15:44:51;;;;;;;20.50;12.90;;;;;;;0.93;88.80;100309.56;5233360;28;20033;-80
2021/12/26 15:47:22;;;;;;;17.17;12.03;;;;;;;0.90;88.77;100304.50;5262171;28;20580;-78
2021/12/26 15:49:54;;;;;;;15.93;11.87;;;;;;;0.92;88.92;100307.88;5253976;28;20040;-79
2021/12/26 15:52:25;;;;;;;19.57;13.77;;;;;;;0.86;89.01;100287.41;5266660;28;20379;-79
2021/12/26 15:54:56;;;;;;;19.53;13.07;;;;;;;0.98;88.89;100293.13;5254243;28;20104;-80
2021/12/26 15:57:28;;;;;;;18.83;12.77;;;;;;;1.00;88.92;100320.53;5251758;28;20616;-80
2021/12/26 15:59:59;;;;;;;17.97;13.70;;;;;;;0.76;89.35;100280.81;5253708;28;20074;-80
2021/12/26 16:02:30;;;;;;;21.17;13.93;;;;;;;0.83;89.75;100295.25;5254013;28;20574;-79
2021/12/26 16:05:02;;;;;;;25.13;13.40;;;;;;;0.88;89.41;100301.09;5236460;28;20116;-78
2021/12/26 16:07:34;;;;;;;18.30;12.70;;;;;;;1.13;89.42;100326.22;5252680;28;20512;-78
2021/12/26 16:10:06;;;;;;;17.50;12.60;;;;;;;1.11;89.28;100322.81;5242245;28;20060;-78
2021/12/26 16:12:37;;;;;;;20.87;14.07;;;;;;;0.98;89.47;100285.38;5242229;28;20056;-80
2021/12/26 16:15:09;;;;;;;21.73;15.00;;;;;;;1.12;89.43;100310.78;5244827;28;20029;-77
2021/12/26 16:17:40;;;;;;;20.27;13.57;;;;;;;0.85;89.66;100290.88;5254501;28;20599;-79
2021/12/26 16:20:15;;;;;;;17.93;13.87;;;;;;;0.95;89.75;100289.75;5255828;28;20035;-80
2021/12/26 16:22:49;;;;;;;19.60;14.07;;;;;;;0.95;90.22;100291.47;5254330;28;20846;-80
2021/12/26 16:25:28;;;;;;;18.40;12.43;;;;;;;0.91;89.87;100272.66;5254490;28;20035;-80
2021/12/26 16:28:05;;;;;;;19.03;13.43;;;;;;;0.70;90.36;100248.31;5257177;28;20043;-81
2021/12/26 16:30:39;;;;;;;19.83;15.77;;;;;;;0.95;90.94;100284.56;5253888;28;20074;-78
2021/12/26 16:33:11;;;;;;;;;;;;;;;1.27;90.06;100318.06;5256751;28;20024;-78
2021/12/26 16:35:43;;;;;;;24.83;17.40;;;;;;;1.16;90.39;100317.53;5255227;28;19966;-80
2021/12/26 16:38:21;;;;;;;20.33;13.53;;;;;;;1.13;90.80;100305.56;5253965;28;20024;-80
2021/12/26 16:40:52;;;;;;;20.40;14.27;;;;;;;1.19;90.70;100302.81;5255310;28;20047;-80
2021/12/26 16:43:24;;;;;;;18.77;13.47;;;;;;;1.08;91.41;100305.69;5252460;28;20021;-79
2021/12/26 16:45:55;;;;;;;19.23;13.87;;;;;;;0.84;91.39;100268.56;5255658;28;20029;-80
2021/12/26 16:48:32;;;;;;;20.60;14.13;;;;;;;1.08;91.50;100291.97;5255810;28;20506;-81
2021/12/26 16:51:04;;;;;;;19.93;14.17;;;;;;;1.25;91.47;100313.84;5255118;28;20940;-80
2021/12/26 16:53:36;;;;;;;20.53;13.83;;;;;;;1.29;91.62;100316.25;5253821;28;20075;-78
2021/12/26 16:56:10;;;;;;;20.40;14.47;;;;;;;1.26;91.13;100306.03;5254012;28;20036;-78
2021/12/26 16:58:41;;;;;;;20.90;15.02;;;;;;;0.99;91.51;100266.44;5253819;28;20124;-78
2021/12/26 17:01:13;;;;;;;20.17;14.47;;;;;;;1.00;91.57;100263.81;5254962;28;20038;-79
2021/12/26 17:03:44;;;;;;;25.30;16.93;;;;;;;1.26;92.26;100300.88;5253587;28;20032;-80
2021/12/26 17:06:17;;;;;;;18.97;14.43;;;;;;;1.33;92.52;100309.28;5255007;28;20021;-80
2021/12/26 17:08:48;;;;;;;24.00;16.10;;;;;;;1.40;91.84;100307.34;5255839;28;20025;-81
2021/12/26 17:11:20;;;;;;;21.23;13.97;;;;;;;1.35;92.29;100310.09;5255016;28;20017;-80
2021/12/26 17:13:51;;;;;;;21.87;15.13;;;;;;;1.11;92.59;100278.97;5255130;28;20099;-80
2021/12/26 17:16:22;;;;;;;34.20;22.23;;;;;;;1.04;92.41;100254.25;5254946;28;20032;-80
2021/12/26 17:18:53;;;;;;;29.30;20.43;;;;;;;1.21;92.85;100289.84;5255304;28;20037;-81
2021/12/26 17:21:32;;;;;;;37.30;24.90;;;;;;;1.33;92.85;100288.63;5253456;28;20927;-79
2021/12/26 17:24:04;;;;;;;25.97;17.40;;;;;;;1.32;93.04;100294.72;5254777;28;20438;-80
2021/12/26 17:26:44;;;;;;;23.03;15.83;;;;;;;1.38;93.75;100289.34;5255599;28;20021;-80
2021/12/26 17:29:15;;;;;;;24.13;17.20;;;;;;;1.33;93.95;100278.31;5254373;28;20033;-79
2021/12/26 17:31:46;;;;;;;21.57;15.50;;;;;;;1.36;94.14;100285.13;5253850;28;20082;-79
2021/12/26 17:34:34;;;;;;;19.70;15.27;;;;;;;1.35;94.72;100276.53;5253413;28;20024;-78
2021/12/26 17:37:06;;;;;;;26.90;15.43;;;;;;;1.41;94.68;100291.84;5252676;28;20032;-79
2021/12/26 17:39:43;;;;;;;32.90;16.00;;;;;;;1.10;94.56;100220.53;5254752;28;20488;-79
2021/12/26 17:42:15;;;;;;;22.23;14.47;;;;;;;1.51;94.58;100283.81;5250082;28;20036;-80
2021/12/26 17:44:47;;;;;;;22.30;15.30;;;;;;;1.14;94.89;100239.34;5248144;28;20029;-79
2021/12/26 17:47:18;;;;;;;22.10;15.67;;;;;;;1.45;95.71;100296.00;5255077;28;20147;-79
2021/12/26 17:49:49;;;;;;;21.53;15.37;;;;;;;1.38;95.73;100265.31;5254285;28;20069;-80
2021/12/26 17:52:21;;;;;;;21.00;15.87;;;;;;;1.29;95.84;100248.38;5253705;28;20028;-80
2021/12/26 17:54:53;;;;;;;22.17;15.60;;;;;;;1.23;95.77;100225.31;5252701;28;20372;-79
2021/12/26 17:57:25;;;;;;;24.20;16.57;;;;;;;1.53;95.32;100256.22;5246380;28;20413;-78
2021/12/26 18:00:04;;;;;;;23.07;16.20;;;;;;;1.40;95.53;100233.38;5253118;28;20031;-78
2021/12/26 18:02:39;;;;;;;22.33;16.23;;;;;;;1.58;95.94;100269.84;5251573;28;20124;-78
2021/12/26 18:05:12;;;;;;;25.17;16.83;;;;;;;1.22;96.19;100218.47;5248392;28;20037;-79
2021/12/26 18:07:44;;;;;;;23.47;16.43;;;;;;;1.29;96.02;100227.72;5250251;28;20079;-79
2021/12/26 18:10:18;;;;;;;26.70;16.23;;;;;;;1.48;96.04;100258.97;5253825;28;20074;-79
2021/12/26 18:12:50;;;;;;;22.55;16.35;;;;;;;1.69;96.03;100267.75;5252972;28;20468;-80
2021/12/26 18:15:22;;;;;;;21.33;16.60;;;;;;;1.45;96.02;100249.56;5254161;28;20100;-79
2021/12/26 18:17:53;;;;;;;23.70;16.13;;;;;;;1.43;95.78;100242.78;5252843;28;20112;-80
2021/12/26 18:20:27;;;;;;;21.47;17.77;;;;;;;1.61;96.28;100264.56;5253315;28;20028;-78
2021/12/26 18:22:59;;;;;;;25.20;17.93;;;;;;;1.59;96.15;100256.03;5252633;28;20016;-79
2021/12/26 18:25:32;;;;;;;24.03;17.27;;;;;;;1.46;96.04;100245.25;5254158;28;20025;-80
2021/12/26 18:28:04;;;;;;;37.90;25.00;;;;;;;1.49;96.24;100249.47;5254368;28;20411;-79
2021/12/26 18:30:35;;;;;;;23.20;17.67;;;;;;;1.56;96.71;100259.56;5254249;28;20032;-81
2021/12/26 18:33:07;;;;;;;33.57;25.97;;;;;;;1.51;96.69;100242.50;5251960;28;20471;-80
2021/12/26 18:35:39;;;;;;;22.77;17.87;;;;;;;1.67;96.88;100260.94;5267483;28;20032;-79
2021/12/26 18:38:10;;;;;;;22.33;17.03;;;;;;;1.48;97.44;100243.47;5270502;28;20016;-79
2021/12/26 18:40:42;;;;;;;25.20;19.00;;;;;;;1.58;97.30;100249.19;5266234;28;20222;-78
2021/12/26 18:43:13;;;;;;;25.63;18.27;;;;;;;1.79;97.01;100272.63;5251304;28;20013;-78
2021/12/26 18:45:45;;;;;;;23.87;18.87;;;;;;;1.68;97.25;100260.91;5256509;28;20052;-78
2021/12/26 18:48:22;;;;;;;26.53;17.63;;;;;;;1.49;97.83;100224.50;5254086;28;20066;-78
2021/12/26 18:51:11;;;;;;;28.23;18.07;;;;;;;1.87;97.50;100268.03;5256311;28;20141;-79
2021/12/26 18:53:43;;;;;;;24.77;17.37;;;;;;;1.66;97.90;100244.59;5255548;28;20495;-78
2021/12/26 18:56:14;;;;;;;26.13;19.47;;;;;;;1.80;97.93;100264.81;5255294;28;20033;-77
2021/12/26 19:02:14;;;;;;;26.47;20.30;;;;;;;1.66;98.38;100226.53;5252754;28;20053;-78
2021/12/26 19:04:47;;;;;;;30.57;20.43;;;;;;;1.91;98.71;100256.72;5251067;28;20027;-77
2021/12/26 19:07:18;;;;;;;29.90;19.97;;;;;;;1.69;99.02;100221.25;5265504;28;20430;-77
2021/12/26 19:09:49;;;;;;;28.00;19.63;;;;;;;1.91;99.19;100250.72;5253877;28;20020;-77
2021/12/26 19:12:21;;;;;;;26.07;19.63;;;;;;;1.99;99.14;100251.28;5253642;28;20031;-79
2021/12/26 19:14:52;;;;;;;28.43;20.10;;;;;;;1.97;99.23;100253.09;5256161;28;20021;-78
2021/12/26 19:17:23;;;;;;;27.20;20.33;;;;;;;1.72;99.16;100210.00;5255563;28;20028;-79
2021/12/26 19:19:56;;;;;;;31.63;23.03;;;;;;;1.62;100.00;100181.09;5256094;28;20366;-77
2021/12/26 19:22:27;;;;;;;26.50;19.87;;;;;;;2.09;100.00;100248.41;5256119;28;20549;-78
2021/12/26 19:25:01;;;;;;;28.37;20.13;;;;;;;1.76;100.00;100203.00;5257724;28;20125;-78
2021/12/26 19:27:35;;;;;;;24.02;19.38;;;;;;;2.02;100.00;100233.13;5254263;28;20959;-78
2021/12/26 19:30:10;;;;;;;29.38;21.17;;;;;;;2.21;100.00;100247.13;5255470;28;20086;-78
2021/12/26 19:32:44;;;;;;;25.45;20.55;;;;;;;1.91;100.00;100204.22;5254308;28;20067;-78
2021/12/26 19:35:16;;;;;;;31.50;23.17;;;;;;;2.03;100.00;100213.28;5255946;28;20029;-78
2021/12/26 19:37:48;;;;;;;28.73;21.70;;;;;;;1.95;100.00;100210.13;5256052;28;20027;-79
2021/12/26 19:40:23;;;;;;;28.97;21.47;;;;;;;1.87;100.00;100194.91;5256237;28;20067;-79
2021/12/26 19:42:59;;;;;;;30.37;23.40;;;;;;;1.97;100.00;100198.88;5256150;28;20414;-80
2021/12/26 19:45:33;;;;;;;29.37;21.03;;;;;;;2.12;100.00;100223.31;5257020;28;20051;-80
2021/12/26 19:48:08;;;;;;;28.17;21.15;;;;;;;1.82;100.00;100156.31;5257516;28;20071;-78
2021/12/26 19:50:39;;;;;;;26.92;20.73;;;;;;;2.16;100.00;100224.06;5255180;28;20032;-80
2021/12/26 19:53:10;;;;;;;26.27;21.00;;;;;;;1.97;100.00;100193.69;5256907;28;20021;-80
2021/12/26 19:55:42;;;;;;;28.30;21.03;;;;;;;2.24;100.00;100223.78;5256117;28;20025;-79
2021/12/26 19:58:13;;;;;;;32.93;22.17;;;;;;;2.11;100.00;100216.44;5254644;28;20028;-79
2021/12/26 20:00:45;;;;;;;31.03;22.57;;;;;;;2.09;100.00;100207.06;5254380;28;20048;-78
2021/12/26 20:03:16;;;;;;;27.90;21.67;;;;;;;2.00;100.00;100198.75;5256454;28;20013;-78
2021/12/26 20:05:50;;;;;;;25.97;21.00;;;;;;;1.92;100.00;100180.91;5253920;28;20021;-79
2021/12/26 20:08:21;;;;;;;27.53;20.97;;;;;;;1.85;100.00;100165.72;5256571;28;20032;-79
2021/12/26 20:10:55;;;;;;;25.33;20.43;;;;;;;2.07;100.00;100178.72;5256014;28;20029;-79
2021/12/26 20:13:28;;;;;;;27.77;21.38;;;;;;;2.00;100.00;100175.50;5259532;28;20023;-79
2021/12/26 20:16:03;;;;;;;29.30;21.90;;;;;;;2.26;100.00;100211.66;5253812;28;20036;-78
2021/12/26 20:18:36;;;;;;;28.53;21.03;;;;;;;2.12;100.00;100189.72;5250996;28;20045;-78
2021/12/26 20:21:17;;;;;;;33.27;25.37;;;;;;;2.09;100.00;100187.25;5239619;28;20032;-77
2021/12/26 20:23:50;;;;;;;27.77;20.57;;;;;;;2.00;100.00;100159.16;5242352;28;20082;-77
2021/12/26 20:26:21;;;;;;;31.43;22.03;;;;;;;2.05;100.00;100178.78;5245373;28;20103;-78
2021/12/26 20:29:02;;;;;;;30.30;22.50;;;;;;;2.13;100.00;100188.81;5244220;28;20028;-77
2021/12/26 20:31:33;;;;;;;25.73;20.63;;;;;;;2.04;100.00;100178.84;5244763;28;20345;-79
2021/12/26 20:34:05;;;;;;;28.97;20.63;;;;;;;2.33;100.00;100215.72;5246354;28;20050;-79
2021/12/26 20:36:36;;;;;;;27.37;19.97;;;;;;;2.07;100.00;100167.53;5243391;28;20114;-79
2021/12/26 20:39:09;;;;;;;24.23;19.77;;;;;;;2.27;100.00;100193.50;5246062;28;20044;-77
2021/12/26 20:41:47;;;;;;;27.10;20.20;;;;;;;2.35;100.00;100202.72;5245482;28;20025;-79
2021/12/26 20:44:25;;;;;;;30.20;21.57;;;;;;;2.11;100.00;100164.78;5246572;28;20029;-79
2021/12/26 20:46:56;;;;;;;29.17;22.87;;;;;;;2.05;100.00;100142.59;5244486;28;20029;-79
2021/12/26 20:49:28;;;;;;;27.20;20.60;;;;;;;2.15;100.00;100156.03;5242701;28;20031;-79
2021/12/26 20:51:59;;;;;;;26.00;21.00;;;;;;;2.26;100.00;100162.56;5244991;28;20041;-78
2021/12/26 20:54:33;;;;;;;30.00;20.20;;;;;;;2.27;100.00;100170.25;5245204;28;20075;-79
2021/12/26 20:57:07;;;;;;;24.55;18.88;;;;;;;2.34;100.00;100164.88;5244670;28;20059;-79
2021/12/26 20:59:38;;;;;;;27.75;21.77;;;;;;;2.47;100.00;100191.09;5245481;28;20120;-79
2021/12/26 21:02:10;;;;;;;27.90;20.77;;;;;;;2.29;100.00;100167.59;5246878;28;20035;-79
2021/12/26 21:04:44;;;;;;;24.40;20.60;;;;;;;2.35;100.00;100177.75;5247185;28;20029;-79
2021/12/26 21:07:17;;;;;;;27.42;20.92;;;;;;;2.15;100.00;100147.44;5247984;28;20025;-79
2021/12/26 21:09:50;;;;;;;26.70;19.77;;;;;;;2.35;100.00;100185.50;5248426;28;20040;-77
2021/12/26 21:12:24;;;;;;;27.23;21.00;;;;;;;2.35;100.00;100184.63;5247533;28;20837;-80
2021/12/26 21:14:55;;;;;;;31.95;22.00;;;;;;;2.05;100.00;100134.00;5246960;28;20033;-78
2021/12/26 21:17:26;;;;;;;31.63;24.73;;;;;;;2.45;100.00;100198.91;5246221;28;20021;-78
2021/12/26 21:19:58;;;;;;;42.17;30.37;;;;;;;2.24;100.00;100154.84;5244354;28;20083;-79
2021/12/26 21:22:30;;;;;;;41.70;27.17;;;;;;;2.39;100.00;100174.13;5242608;28;20094;-79
2021/12/26 21:25:02;;;;;;;36.70;24.83;;;;;;;2.32;100.00;100167.53;5242613;28;20043;-78
2021/12/26 21:27:34;;;;;;;36.80;26.17;;;;;;;2.45;100.00;100178.22;5246767;28;20029;-78
2021/12/26 21:30:07;;;;;;;33.50;22.90;;;;;;;2.32;100.00;100152.00;5244689;28;20024;-79
2021/12/26 21:32:41;;;;;;;30.70;24.03;;;;;;;2.48;100.00;100172.13;5242072;28;20037;-79
2021/12/26 21:35:13;;;;;;;36.77;23.93;;;;;;;2.52;100.00;100177.13;5242328;28;20040;-78
2021/12/26 21:37:44;;;;;;;37.20;24.50;;;;;;;2.29;100.00;100150.38;5243333;28;20032;-79
2021/12/26 21:40:17;;;;;;;35.97;23.57;;;;;;;2.28;100.00;100140.94;5242337;28;20029;-79
2021/12/26 21:42:51;;;;;;;36.23;25.30;;;;;;;2.05;100.00;100105.59;5244056;28;20029;-79
2021/12/26 21:45:23;;;;;;;29.80;21.08;;;;;;;2.45;100.00;100142.03;5242790;28;20103;-79
2021/12/26 21:47:56;;;;;;;30.10;22.07;;;;;;;2.37;100.00;100137.19;5243082;28;20025;-77
2021/12/26 21:50:31;;;;;;;36.93;25.30;;;;;;;2.17;100.00;100112.03;5241322;28;20543;-78
2021/12/26 21:53:03;;;;;;;31.73;23.30;;;;;;;2.31;100.00;100139.97;5244029;28;20037;-78
2021/12/26 21:55:34;;;;;;;36.43;25.30;;;;;;;2.30;100.00;100140.88;5243786;28;20079;-79
2021/12/26 21:58:09;;;;;;;33.80;23.93;;;;;;;2.26;100.00;100126.38;5245242;28;20443;-80
2021/12/26 22:00:54;;;;;;;34.22;24.83;;;;;;;2.42;100.00;100148.19;5243967;28;20083;-78
2021/12/26 22:03:30;;;;;;;34.97;24.43;;;;;;;2.41;100.00;100145.63;5242339;28;20041;-77
2021/12/26 22:06:01;;;;;;;37.17;25.50;;;;;;;2.36;100.00;100142.38;5275415;28;20035;-79
2021/12/26 22:08:33;;;;;;;38.87;24.07;;;;;;;2.28;100.00;100135.78;5244091;28;20948;-79
2021/12/26 22:11:04;;;;;;;35.93;24.37;;;;;;;2.38;100.00;100131.09;5243531;28;20029;-79
2021/12/26 22:13:35;;;;;;;39.50;25.80;;;;;;;2.56;100.00;100172.69;5243517;28;20033;-80
2021/12/26 22:16:07;;;;;;;35.53;25.23;;;;;;;2.39;100.00;100142.28;5242418;28;20777;-80
2021/12/26 22:18:39;;;;;;;34.63;24.00;;;;;;;2.48;100.00;100148.84;5242036;28;20066;-80
2021/12/26 22:21:11;;;;;;;35.57;25.60;;;;;;;2.37;100.00;100133.75;5243173;28;20563;-80
2021/12/26 22:23:42;;;;;;;37.13;27.47;;;;;;;2.58;100.00;100167.44;5244688;28;20104;-79